Time;durP1;ratioP1;P1;durP2;ratioP2;P2;SDS_P1;SDS_P2;PMS_P1;PMS_P2;Temp;Humidity;BMP_temperature;BMP_pressure;BME280_temperature;BME280_humidity;BME280_pressure;Samples;Min_cycle;Max_cycle;Signal;HPM_P1;HPM_P2
2022/01/26 00:06:05;;;;;;;51.90;19.65;;;;;;;1.57;72.92;102086.72;8785246;33;20155;-75
2022/01/26 00:11:09;;;;;;;49.33;19.10;;;;;;;1.31;72.92;102097.69;8781086;33;20734;-74
2022/01/26 00:16:22;;;;;;;46.45;19.95;;;;;;;1.37;73.63;102100.28;8778217;33;20167;-75
2022/01/26 00:21:33;;;;;;;53.58;18.30;;;;;;;1.53;73.03;102089.41;8778356;33;20191;-75
2022/01/26 00:27:01;;;;;;;48.60;18.45;;;;;;;1.63;73.19;102096.31;8777732;33;20187;-75
2022/01/26 00:42:53;;;;;;;53.10;20.10;;;;;;;1.89;71.62;102075.56;8778363;33;20195;-74
2022/01/26 00:47:57;;;;;;;53.20;19.02;;;;;;;1.82;71.82;102071.25;8777293;33;20692;-75
2022/01/26 00:53:00;;;;;;;55.80;19.95;;;;;;;1.64;72.50;102071.56;8777218;33;20277;-75
2022/01/26 00:58:05;;;;;;;55.78;20.33;;;;;;;1.53;72.84;102071.75;8776630;33;20156;-74
2022/01/26 01:03:08;;;;;;;58.05;20.73;;;;;;;1.42;73.30;102063.97;8776062;33;20175;-74
2022/01/26 01:08:15;;;;;;;52.58;19.42;;;;;;;1.44;73.74;102077.19;8776958;33;20166;-75
2022/01/26 01:13:30;;;;;;;55.65;20.67;;;;;;;1.47;73.47;102077.16;8775870;33;20206;-75
2022/01/26 01:18:41;;;;;;;60.50;20.48;;;;;;;1.61;73.33;102082.22;8775749;33;20143;-75
2022/01/26 01:24:10;;;;;;;47.20;18.83;;;;;;;1.39;73.56;102076.41;8775703;33;20202;-74
2022/01/26 01:29:20;;;;;;;59.78;21.65;;;;;;;1.63;73.47;102073.34;8775751;33;20210;-75
2022/01/26 01:34:29;;;;;;;51.63;19.48;;;;;;;1.80;72.80;102062.44;8715798;33;20584;-75
2022/01/26 01:39:33;;;;;;;52.50;18.40;;;;;;;1.92;72.32;102051.66;8716327;33;21046;-75
2022/01/26 01:44:38;;;;;;;57.47;19.40;;;;;;;1.90;72.08;102049.94;8716826;33;20183;-74
2022/01/26 01:49:41;;;;;;;57.85;20.05;;;;;;;1.64;72.87;102042.44;8717292;33;20147;-75
2022/01/26 01:54:50;;;;;;;56.60;21.65;;;;;;;1.55;73.53;102046.13;8726834;33;20648;-74
2022/01/26 01:59:55;;;;;;;55.63;20.70;;;;;;;1.77;73.12;102045.75;8719424;33;20144;-75
2022/01/26 02:04:59;;;;;;;59.35;20.30;;;;;;;1.72;73.05;102037.88;8717370;33;20241;-75
2022/01/26 02:10:02;;;;;;;58.85;20.70;;;;;;;1.60;73.35;102031.03;8715971;33;20171;-74
2022/01/26 02:15:13;;;;;;;65.45;22.63;;;;;;;1.47;73.61;102030.34;8716152;33;20159;-74
2022/01/26 02:52:45;;;;;;;68.53;21.83;;;;;;;1.19;74.32;102008.75;8779330;33;20139;-74
2022/01/26 02:58:08;;;;;;;60.78;20.42;;;;;;;1.27;74.65;101982.16;8779569;33;20652;-74
2022/01/26 03:03:16;;;;;;;62.85;22.90;;;;;;;1.48;74.77;101978.25;8779052;33;20228;-74
2022/01/26 03:08:31;;;;;;;67.07;24.60;;;;;;;1.20;74.87;101961.97;8767726;33;20921;-74
2022/01/26 03:13:37;;;;;;;67.40;24.27;;;;;;;1.33;75.19;101950.28;8779170;33;20154;-74
2022/01/26 03:19:02;;;;;;;61.97;22.65;;;;;;;1.03;75.36;101938.44;8778351;33;20241;-72
2022/01/26 03:29:41;;;;;;;65.85;22.08;;;;;;;1.41;74.41;101923.66;8708657;33;20236;-75
2022/01/26 03:34:52;;;;;;;64.93;23.73;;;;;;;1.25;74.68;101929.22;8778806;33;20243;-75
2022/01/26 03:39:56;;;;;;;68.82;23.42;;;;;;;1.24;74.70;101939.84;8778767;33;20635;-74
2022/01/26 03:44:59;;;;;;;73.47;25.75;;;;;;;1.36;75.18;101944.91;8779070;33;20930;-73
2022/01/26 03:50:03;;;;;;;61.03;22.88;;;;;;;1.39;74.97;101939.56;8778419;33;20240;-75
2022/01/26 03:55:09;;;;;;;56.33;22.65;;;;;;;1.02;75.94;101942.00;8778222;33;20228;-73
2022/01/26 04:00:14;;;;;;;70.18;24.05;;;;;;;1.27;75.15;101950.38;8777432;33;20638;-75
2022/01/26 04:05:16;;;;;;;70.88;25.65;;;;;;;1.40;75.01;101957.22;8778701;33;20151;-75
2022/01/26 04:10:32;;;;;;;70.15;23.38;;;;;;;1.24;75.47;101961.03;8777988;33;20155;-76
2022/01/26 04:15:35;;;;;;;68.32;23.60;;;;;;;1.34;75.33;101977.63;8777909;33;20212;-75
2022/01/26 04:20:42;;;;;;;68.63;25.10;;;;;;;1.35;75.39;101977.59;8777484;33;20623;-75
2022/01/26 04:25:49;;;;;;;69.47;25.00;;;;;;;1.33;75.47;101975.88;8777604;33;20596;-74
2022/01/26 04:30:52;;;;;;;64.72;22.73;;;;;;;1.14;75.75;101956.78;8776909;33;20237;-74
2022/01/26 04:35:55;;;;;;;71.15;23.13;;;;;;;1.29;75.58;101940.66;8776993;33;20260;-73
2022/01/26 04:41:11;;;;;;;66.88;21.83;;;;;;;1.18;75.72;101939.94;8777166;33;20701;-74
2022/01/26 04:46:14;;;;;;;64.22;22.63;;;;;;;0.97;76.25;101944.69;8778661;33;20259;-74
2022/01/26 04:51:17;;;;;;;69.75;22.10;;;;;;;0.74;76.49;101957.41;8776838;33;20549;-73
2022/01/26 04:56:21;;;;;;;74.43;24.38;;;;;;;0.57;77.20;101947.94;8776520;33;20341;-75
2022/01/26 05:01:24;;;;;;;69.93;25.55;;;;;;;1.04;75.50;101974.56;8777906;33;20182;-75
2022/01/26 05:06:28;;;;;;;80.97;28.42;;;;;;;0.50;76.97;101961.28;8776219;33;20178;-75
2022/01/26 05:11:35;;;;;;;83.40;28.45;;;;;;;0.74;76.08;101960.03;8775802;33;20200;-75
2022/01/26 05:16:38;;;;;;;76.32;25.60;;;;;;;0.70;75.94;101963.66;8776091;33;20210;-74
2022/01/26 05:21:42;;;;;;;94.55;29.75;;;;;;;0.52;76.43;101962.13;8775458;33;20186;-75
2022/01/26 05:26:46;;;;;;;68.68;25.48;;;;;;;0.60;75.76;101971.72;8775722;33;20610;-74
2022/01/26 05:31:49;;;;;;;76.88;27.77;;;;;;;0.77;75.32;101955.59;8775819;33;20148;-75
2022/01/26 05:36:53;;;;;;;92.15;30.00;;;;;;;1.04;74.72;101950.75;8775757;33;22057;-74
2022/01/26 05:41:58;;;;;;;81.55;31.85;;;;;;;1.08;74.72;101951.59;8776032;33;20195;-74
2022/01/26 05:47:01;;;;;;;84.55;31.60;;;;;;;1.10;74.67;101934.78;8776385;33;20178;-74
2022/01/26 05:52:05;;;;;;;98.18;32.33;;;;;;;1.03;74.65;101917.25;8774687;33;21417;-74
2022/01/26 05:57:09;;;;;;;94.38;31.65;;;;;;;1.00;74.46;101912.88;8774449;33;20163;-74
2022/01/26 06:02:12;;;;;;;89.03;29.85;;;;;;;0.37;76.42;101905.06;8775330;33;20186;-74
2022/01/26 06:07:15;;;;;;;86.50;24.88;;;;;;;0.43;76.07;101890.88;8774785;33;20585;-74
2022/01/26 06:12:19;;;;;;;108.40;36.33;;;;;;;0.45;76.30;101887.31;8774314;33;20509;-74
2022/01/26 06:17:22;;;;;;;106.28;36.75;;;;;;;0.09;77.36;101889.59;8774717;33;21589;-75
2022/01/26 06:22:25;;;;;;;99.35;36.05;;;;;;;0.37;76.16;101910.34;8774985;33;20692;-74
2022/01/26 06:27:30;;;;;;;103.43;37.13;;;;;;;0.36;76.52;101906.84;8774154;33;20163;-74
2022/01/26 06:32:33;;;;;;;106.15;35.28;;;;;;;0.57;76.11;101931.19;8775870;33;20190;-74
2022/01/26 06:37:36;;;;;;;107.45;36.80;;;;;;;0.53;75.70;101906.59;8782395;33;20520;-74
2022/01/26 06:42:51;;;;;;;107.07;36.33;;;;;;;0.51;75.91;101910.16;8781613;33;20421;-74
2022/01/26 06:48:11;;;;;;;86.32;31.67;;;;;;;0.40;75.96;101928.81;8775901;33;20190;-74
2022/01/26 06:53:14;;;;;;;96.40;31.55;;;;;;;0.57;74.87;101933.84;8774805;33;20194;-74
2022/01/26 06:58:18;;;;;;;60.40;22.80;;;;;;;0.15;75.72;101912.41;8748931;33;20174;-73
2022/01/26 07:03:21;;;;;;;85.43;24.85;;;;;;;0.14;75.96;101914.19;8773683;33;20163;-74
2022/01/26 07:08:24;;;;;;;87.13;31.60;;;;;;;0.32;75.69;101909.53;8774033;33;20135;-74
2022/01/26 07:13:29;;;;;;;91.47;30.42;;;;;;;0.08;76.66;101901.06;8773565;33;20636;-74
2022/01/26 07:23:52;;;;;;;84.30;29.65;;;;;;;-0.03;77.52;101920.56;8776939;33;20326;-75
2022/01/26 07:28:57;;;;;;;91.37;30.13;;;;;;;-0.05;78.49;101931.19;8779182;33;20173;-74
2022/01/26 07:34:00;;;;;;;95.80;31.25;;;;;;;0.25;76.90;101923.72;8779257;33;20209;-75
2022/01/26 07:39:08;;;;;;;48.05;18.67;;;;;;;-0.23;78.60;101911.13;8784916;33;20147;-74
2022/01/26 07:44:12;;;;;;;87.17;30.80;;;;;;;0.20;77.53;101915.00;8794871;33;20179;-76
2022/01/26 07:49:15;;;;;;;100.33;31.87;;;;;;;0.58;76.09;101919.75;8778911;33;20441;-76
2022/01/26 07:54:20;;;;;;;105.00;33.22;;;;;;;0.41;75.74;101930.53;8779283;33;20459;-75
2022/01/26 07:59:25;;;;;;;86.65;32.03;;;;;;;0.33;76.50;101946.53;8777787;33;20265;-76
2022/01/26 08:04:28;;;;;;;107.07;34.07;;;;;;;0.26;76.76;101922.84;8753531;33;20190;-75
2022/01/26 08:09:31;;;;;;;94.13;33.20;;;;;;;0.21;75.25;101924.66;8753105;33;20143;-75
2022/01/26 08:14:36;;;;;;;72.40;23.52;;;;;;;0.62;74.65;101945.25;8778587;33;20152;-75
2022/01/26 08:19:39;;;;;;;87.28;28.20;;;;;;;0.22;75.51;101931.69;8777234;33;20248;-75
2022/01/26 08:24:42;;;;;;;85.38;31.70;;;;;;;0.30;75.52;101951.88;8777846;33;20186;-74
2022/01/26 08:29:53;;;;;;;88.77;30.77;;;;;;;0.00;75.94;101950.50;8776806;33;20436;-75
2022/01/26 08:35:01;;;;;;;77.78;28.13;;;;;;;0.22;74.90;101955.47;8777306;33;20182;-76
2022/01/26 08:40:07;;;;;;;88.80;29.47;;;;;;;-0.24;76.01;101970.13;8773781;33;20183;-75
2022/01/26 08:45:11;;;;;;;81.13;29.83;;;;;;;-0.04;76.29;101972.53;8777162;33;20733;-75
2022/01/26 08:50:15;;;;;;;98.30;34.60;;;;;;;0.21;75.62;101970.47;8780673;33;20647;-75
2022/01/26 08:55:18;;;;;;;92.22;31.83;;;;;;;0.03;75.88;101968.94;8776713;33;20179;-75
2022/01/26 09:00:22;;;;;;;97.57;34.33;;;;;;;0.29;75.04;101962.44;8751417;33;20282;-75
2022/01/26 09:05:25;;;;;;;105.03;35.33;;;;;;;0.11;74.74;101975.03;8778355;33;20209;-75
2022/01/26 09:10:30;;;;;;;95.90;33.17;;;;;;;0.50;73.93;101956.88;8776971;33;21053;-75
2022/01/26 09:15:35;;;;;;;103.97;30.53;;;;;;;0.45;74.51;101958.72;8779022;33;20588;-75
2022/01/26 09:20:38;;;;;;;106.32;33.58;;;;;;;0.59;73.84;101950.56;8775844;33;20247;-76
2022/01/26 09:25:41;;;;;;;83.20;29.52;;;;;;;0.29;74.35;101951.88;8776570;33;20534;-75
2022/01/26 09:30:46;;;;;;;90.07;28.60;;;;;;;0.28;74.18;101952.78;8775941;33;20404;-76
2022/01/26 09:35:49;;;;;;;96.18;32.00;;;;;;;0.25;75.01;101939.59;8775713;33;20319;-75
2022/01/26 09:40:52;;;;;;;76.88;24.40;;;;;;;0.52;73.38;101926.00;8750425;33;20255;-76
2022/01/26 09:45:57;;;;;;;92.03;30.90;;;;;;;0.64;73.73;101929.34;8775441;33;20182;-76
2022/01/26 09:51:00;;;;;;;65.05;24.42;;;;;;;0.55;74.01;101946.22;8775115;33;20190;-76
2022/01/26 09:56:04;;;;;;;101.35;30.55;;;;;;;0.76;73.62;101951.19;8749715;33;20748;-76
2022/01/26 10:01:09;;;;;;;88.72;29.92;;;;;;;0.73;73.76;101953.88;8774925;33;20182;-76
2022/01/26 10:06:23;;;;;;;57.60;21.77;;;;;;;0.66;73.90;101959.28;8775383;33;20201;-75
2022/01/26 10:22:10;;;;;;;89.38;26.60;;;;;;;0.61;74.43;101959.38;8746352;33;20127;-75
2022/01/26 10:27:13;;;;;;;92.40;34.35;;;;;;;0.55;74.30;101976.22;8774643;33;20619;-76
2022/01/26 10:32:18;;;;;;;66.78;23.85;;;;;;;0.47;74.51;101966.63;8776532;33;20171;-75
2022/01/26 10:37:22;;;;;;;83.55;26.88;;;;;;;0.48;75.29;101948.09;8777407;33;20193;-75
2022/01/26 10:42:26;;;;;;;84.38;27.90;;;;;;;0.58;74.91;101957.66;8775693;33;20695;-75
2022/01/26 10:47:36;;;;;;;94.28;29.83;;;;;;;0.53;74.73;101962.13;8775863;33;20676;-74
2022/01/26 10:52:40;;;;;;;68.03;20.80;;;;;;;0.51;75.34;101971.84;8781780;33;20190;-76
2022/01/26 10:57:43;;;;;;;107.03;34.35;;;;;;;0.42;76.34;101982.56;8778250;33;20376;-75
2022/01/26 11:02:48;;;;;;;82.13;29.33;;;;;;;0.55;75.31;101970.91;8781328;33;20703;-76
2022/01/26 11:07:52;;;;;;;98.18;35.22;;;;;;;0.60;75.16;101960.25;8781535;33;20189;-75
2022/01/26 11:12:55;;;;;;;102.60;30.15;;;;;;;0.68;75.72;101970.72;8780274;33;20664;-76
2022/01/26 11:18:08;;;;;;;76.07;23.42;;;;;;;0.47;76.24;101953.41;8780567;33;20163;-76
2022/01/26 11:23:11;;;;;;;103.30;31.25;;;;;;;0.92;75.29;101943.91;8779875;33;20147;-76
2022/01/26 11:28:17;;;;;;;103.70;35.50;;;;;;;0.35;76.67;101954.44;8780832;33;20248;-75
2022/01/26 11:33:27;;;;;;;113.95;35.17;;;;;;;0.70;76.48;101966.28;8780281;33;20136;-75
2022/01/26 11:39:15;;;;;;;80.18;25.73;;;;;;;0.49;76.92;101970.09;8780681;33;20142;-74
2022/01/26 11:49:43;;;;;;;98.13;31.52;;;;;;;0.79;76.19;101958.22;8831292;33;20192;-74
2022/01/26 11:54:52;;;;;;;139.45;48.88;;;;;;;0.94;75.88;101947.41;8765019;33;20147;-74
2022/01/26 12:00:04;;;;;;;104.72;34.17;;;;;;;0.44;78.00;101938.47;8718358;33;20183;-75
2022/01/26 12:05:12;;;;;;;118.38;38.63;;;;;;;0.80;77.17;101915.00;8738576;33;20195;-76
2022/01/26 12:10:27;;;;;;;116.72;39.58;;;;;;;0.81;77.23;101907.03;8743513;33;20886;-74
2022/01/26 12:15:33;;;;;;;129.55;43.03;;;;;;;0.78;77.90;101885.03;8759691;33;20613;-77
2022/01/26 12:36:57;;;;;;;118.43;39.65;;;;;;;0.68;79.38;101878.13;8793755;33;20211;-74
2022/01/26 12:42:11;;;;;;;93.35;28.45;;;;;;;0.84;78.70;101879.63;8796611;33;20205;-74
2022/01/26 12:47:14;;;;;;;95.75;32.20;;;;;;;0.56;79.63;101881.88;8735041;33;20457;-75
2022/01/26 12:52:19;;;;;;;129.68;42.40;;;;;;;0.79;79.99;101887.66;8756938;33;20183;-75
2022/01/26 12:57:22;;;;;;;120.10;36.75;;;;;;;0.66;80.54;101874.66;8746132;33;20195;-76
2022/01/26 13:02:25;;;;;;;75.78;27.45;;;;;;;0.79;80.14;101871.78;8777062;33;20187;-76
2022/01/26 13:07:31;;;;;;;104.75;33.80;;;;;;;0.75;80.52;101853.34;8787815;33;20191;-75
2022/01/26 13:12:34;;;;;;;133.90;45.83;;;;;;;0.56;81.26;101827.19;8778998;33;20503;-76
2022/01/26 13:17:42;;;;;;;112.40;36.72;;;;;;;0.87;81.17;101831.09;8786719;33;20251;-76
2022/01/26 13:23:02;;;;;;;119.88;41.75;;;;;;;1.05;80.34;101825.47;8773359;33;21115;-76
2022/01/26 13:28:19;;;;;;;105.00;35.42;;;;;;;1.16;80.38;101817.34;8779698;33;20175;-76
2022/01/26 13:39:13;;;;;;;108.18;35.10;;;;;;;0.93;81.83;101821.25;8790666;33;20135;-75
2022/01/26 13:49:50;;;;;;;113.88;36.30;;;;;;;1.01;81.50;101815.84;8776570;33;20187;-75
2022/01/26 13:55:20;;;;;;;106.15;32.40;;;;;;;0.92;81.65;101810.72;8764774;33;20179;-75
2022/01/26 14:00:25;;;;;;;92.35;26.38;;;;;;;1.01;81.75;101818.47;8777742;33;20864;-75
2022/01/26 14:05:28;;;;;;;84.60;26.80;;;;;;;0.80;82.49;101802.09;8778361;33;20221;-76
2022/01/26 14:10:34;;;;;;;99.35;31.98;;;;;;;1.03;81.86;101808.75;8789191;33;20433;-77
2022/01/26 14:15:42;;;;;;;96.90;30.73;;;;;;;0.97;81.28;101801.78;8777574;33;20703;-76
2022/01/26 14:20:52;;;;;;;89.85;29.50;;;;;;;0.98;81.41;101803.53;8775575;33;20206;-76
2022/01/26 14:25:57;;;;;;;100.38;34.30;;;;;;;1.14;81.19;101814.69;8776380;33;20200;-75
2022/01/26 14:31:21;;;;;;;74.35;30.25;;;;;;;1.08;81.32;101806.03;8754689;33;20700;-76
2022/01/26 14:36:41;;;;;;;93.75;30.88;;;;;;;1.20;81.53;101809.28;8783062;33;20280;-76
2022/01/26 15:30:04;;;;;;;64.20;23.23;;;;;;;0.74;85.01;101810.16;8778693;33;20679;-76
2022/01/26 15:35:41;;;;;;;76.47;23.98;;;;;;;0.91;84.78;101809.84;8754445;33;20602;-75
2022/01/26 15:40:55;;;;;;;87.95;25.70;;;;;;;0.84;85.30;101805.56;8772840;33;20186;-75
2022/01/26 15:51:46;;;;;;;91.88;29.85;;;;;;;0.72;85.99;101811.09;8771847;32;20179;-76
2022/01/26 16:07:43;;;;;;;108.55;35.38;;;;;;;0.87;86.21;101784.34;8780421;33;20170;-74
2022/01/26 16:12:57;;;;;;;100.03;32.15;;;;;;;0.94;86.34;101779.81;8779786;33;20252;-74
2022/01/26 18:16:38;;;;;;;75.40;28.00;;;;;;;1.07;88.14;101715.16;8775634;33;20235;-75
2022/01/26 18:32:44;;;;;;;54.22;22.15;;;;;;;0.83;90.43;101705.94;8783054;33;20178;-76
2022/01/26 18:54:08;;;;;;;68.82;22.40;;;;;;;0.86;90.32;101710.28;8781674;33;20216;-75
2022/01/26 18:59:14;;;;;;;51.20;15.05;;;;;;;1.03;89.94;101706.41;8783168;33;20167;-75
2022/01/26 19:04:23;;;;;;;71.72;26.15;;;;;;;1.00;89.90;101693.22;8776813;33;20799;-75
2022/01/26 19:09:30;;;;;;;69.60;25.75;;;;;;;1.04;90.03;101700.22;8761475;33;20139;-75
2022/01/26 19:14:38;;;;;;;51.92;18.95;;;;;;;0.99;89.77;101694.16;8760716;33;21334;-75
2022/01/26 19:19:49;;;;;;;72.20;27.02;;;;;;;0.99;90.79;101680.03;8782546;33;20164;-75
2022/01/26 19:24:58;;;;;;;56.45;22.42;;;;;;;0.91;90.77;101677.56;8787495;33;20295;-77
2022/01/26 19:47:12;;;;;;;53.95;19.42;;;;;;;0.96;90.65;101674.78;8719068;32;20522;-74
2022/01/26 19:52:15;;;;;;;57.35;20.70;;;;;;;0.98;90.75;101667.69;8698958;33;20191;-75
2022/01/26 19:57:19;;;;;;;56.63;19.33;;;;;;;1.09;90.83;101664.84;8688233;33;20471;-75
2022/01/26 20:02:25;;;;;;;69.40;24.88;;;;;;;0.97;91.20;101645.66;8686099;33;20537;-75
2022/01/26 20:07:31;;;;;;;77.40;27.70;;;;;;;1.06;91.08;101636.66;8693438;33;20206;-75
2022/01/26 20:12:45;;;;;;;60.00;22.83;;;;;;;0.89;91.49;101642.31;8685679;33;20266;-74
2022/01/26 20:17:49;;;;;;;60.75;21.00;;;;;;;1.19;90.78;101639.91;8683661;33;21140;-74
2022/01/26 20:22:53;;;;;;;63.90;23.15;;;;;;;1.06;90.91;101626.06;8682934;33;20152;-75
2022/01/26 20:28:03;;;;;;;81.85;27.60;;;;;;;1.13;90.94;101629.47;8684532;33;20779;-74
2022/01/26 20:33:08;;;;;;;67.75;26.75;;;;;;;1.30;89.92;101624.66;8685338;33;20184;-76
2022/01/26 20:38:11;;;;;;;46.95;19.88;;;;;;;1.09;90.48;101626.00;8683614;33;20184;-74
2022/01/26 20:43:14;;;;;;;48.00;19.13;;;;;;;0.96;90.88;101619.22;8682576;33;21447;-74
2022/01/26 20:48:19;;;;;;;53.42;20.67;;;;;;;0.97;91.26;101623.63;8682471;33;20188;-73
2022/01/26 20:53:22;;;;;;;58.03;21.23;;;;;;;1.39;89.23;101619.13;8684038;33;20172;-74
2022/01/26 20:58:26;;;;;;;45.28;17.23;;;;;;;1.03;91.02;101626.13;8663738;33;20601;-73
2022/01/26 21:03:39;;;;;;;62.15;23.10;;;;;;;1.07;90.45;101633.13;8662824;33;20923;-73
2022/01/26 21:08:42;;;;;;;60.50;22.27;;;;;;;0.96;91.86;101616.56;8661436;33;20184;-75
2022/01/26 21:13:48;;;;;;;76.55;26.60;;;;;;;1.06;91.20;101621.63;8663075;33;20200;-72
2022/01/26 21:18:56;;;;;;;41.72;19.67;;;;;;;1.00;90.92;101605.91;8662657;33;20421;-74
2022/01/26 21:23:59;;;;;;;30.40;12.45;;;;;;;1.13;90.50;101600.34;8664741;33;20184;-73
2022/01/26 21:29:02;;;;;;;59.45;21.75;;;;;;;1.17;90.75;101602.88;8662487;33;20192;-73
2022/01/26 21:34:07;;;;;;;52.22;20.85;;;;;;;0.98;91.46;101598.91;8663339;33;20518;-76
2022/01/26 21:39:10;;;;;;;51.10;17.58;;;;;;;1.12;90.58;101609.19;8661817;33;20965;-73
2022/01/26 21:44:14;;;;;;;64.88;26.55;;;;;;;0.96;91.53;101606.88;8659361;33;20244;-74
2022/01/26 21:49:18;;;;;;;59.60;21.73;;;;;;;0.98;92.10;101599.75;8661471;33;20675;-73
2022/01/26 21:54:22;;;;;;;53.47;18.40;;;;;;;0.81;91.94;101593.97;8661228;33;20444;-75
2022/01/26 21:59:25;;;;;;;54.83;19.80;;;;;;;0.92;92.00;101597.25;8660537;33;20141;-73
2022/01/26 22:04:29;;;;;;;46.17;18.55;;;;;;;1.08;91.00;101599.59;8660369;33;20331;-75
2022/01/26 22:09:33;;;;;;;63.88;23.33;;;;;;;1.21;90.58;101585.16;8660366;33;20163;-73
2022/01/26 22:14:36;;;;;;;43.60;15.40;;;;;;;0.98;91.25;101602.41;8685986;33;20183;-75
2022/01/26 22:19:41;;;;;;;39.88;17.50;;;;;;;1.03;91.08;101576.72;8721191;33;20185;-73
2022/01/26 22:24:44;;;;;;;63.17;24.10;;;;;;;1.07;91.30;101582.84;8722503;33;20179;-74
2022/01/26 22:29:47;;;;;;;61.28;22.98;;;;;;;1.16;90.57;101577.31;8718173;33;20225;-74
2022/01/26 22:34:51;;;;;;;51.17;20.50;;;;;;;1.06;90.94;101574.00;8721439;33;20197;-74
2022/01/26 22:40:00;;;;;;;45.75;20.85;;;;;;;1.06;90.95;101558.13;8718242;33;20623;-74
2022/01/26 22:45:09;;;;;;;41.40;16.58;;;;;;;1.03;91.00;101544.97;8716597;33;20562;-74
2022/01/26 22:50:15;;;;;;;57.47;20.88;;;;;;;1.02;91.47;101543.22;8717477;33;20182;-74
2022/01/26 22:55:19;;;;;;;61.90;24.83;;;;;;;0.95;91.85;101533.69;8720439;33;20431;-74
2022/01/26 23:00:46;;;;;;;52.60;20.13;;;;;;;1.02;92.02;101537.94;8717462;33;20234;-74
2022/01/26 23:06:12;;;;;;;49.17;16.60;;;;;;;1.16;90.54;101531.47;8717498;33;21642;-73
2022/01/26 23:11:17;;;;;;;31.70;12.23;;;;;;;0.94;90.76;101525.81;8716338;33;20143;-73
2022/01/26 23:16:40;;;;;;;55.67;22.85;;;;;;;0.96;91.17;101511.63;8717189;33;20241;-73
2022/01/26 23:21:44;;;;;;;46.83;19.65;;;;;;;1.05;91.08;101499.94;8716313;33;21455;-73
2022/01/26 23:27:00;;;;;;;45.17;15.63;;;;;;;1.13;90.52;101494.47;8716434;33;20143;-73
2022/01/26 23:32:21;;;;;;;54.40;22.38;;;;;;;0.85;91.52;101487.19;8715991;33;20182;-73
2022/01/26 23:59:22;;;;;;;51.58;21.70;;;;;;;0.77;91.65;101413.31;8715155;33;20187;-73
